Moore, Texas
Current Conditions -  °F | °C
As of 12:15 AM on Thursday 23 Oct 2014 (Local Time) from KCVB Reporting Station
Broken Clouds Broken Clouds  
Wind Chill: 24°   Ceiling: 12000
Heat Index: 24°   Visibility: 10mi
Dew Point: 12°   Wind: 7mph
Humidity: 49%   Direction: 130°SE
Pressure: 30.1"   Gusts: NA
Location:  29.06°N, 99.01°W
Report Text: KCVB 230515Z AUTO 13006KT 10SM BKN120 24/12 A3010 RMK AO2 T02350123
Loading
Personal Weather Stations






























Interactive Weather Map
Tropical Storm Tracking
New forecast layout! Learn more

10-Day Weather Forecast

Advertisements
Track Severe Weather on mobile